sensor_id;sensor_type;location;lat;lon;timestamp;P1;durP1;ratioP1;P2;durP2;ratioP2
24547;SDS011;12713;51.624;4.924;2024-02-16T00:00:45;10.75;;;7.22;;
24547;SDS011;12713;51.624;4.924;2024-02-16T00:03:11;9.98;;;5.82;;
24547;SDS011;12713;51.624;4.924;2024-02-16T00:05:38;11.52;;;4.85;;
24547;SDS011;12713;51.624;4.924;2024-02-16T00:08:04;6.00;;;3.33;;
24547;SDS011;12713;51.624;4.924;2024-02-16T00:10:30;6.18;;;3.00;;
24547;SDS011;12713;51.624;4.924;2024-02-16T00:12:56;11.82;;;3.58;;
24547;SDS011;12713;51.624;4.924;2024-02-16T00:15:22;4.68;;;3.25;;
24547;SDS011;12713;51.624;4.924;2024-02-16T00:17:48;4.65;;;3.60;;
24547;SDS011;12713;51.624;4.924;2024-02-16T00:20:14;7.35;;;3.70;;
24547;SDS011;12713;51.624;4.924;2024-02-16T00:22:40;3.35;;;2.85;;
24547;SDS011;12713;51.624;4.924;2024-02-16T00:25:07;5.22;;;3.00;;
24547;SDS011;12713;51.624;4.924;2024-02-16T00:27:33;7.90;;;3.45;;
24547;SDS011;12713;51.624;4.924;2024-02-16T00:29:59;6.10;;;3.50;;
24547;SDS011;12713;51.624;4.924;2024-02-16T00:32:27;8.80;;;3.50;;
24547;SDS011;12713;51.624;4.924;2024-02-16T00:34:55;5.97;;;3.63;;
24547;SDS011;12713;51.624;4.924;2024-02-16T00:37:21;4.57;;;2.97;;
24547;SDS011;12713;51.624;4.924;2024-02-16T00:39:47;5.95;;;3.08;;
24547;SDS011;12713;51.624;4.924;2024-02-16T00:42:13;4.20;;;2.53;;
24547;SDS011;12713;51.624;4.924;2024-02-16T00:44:39;4.82;;;2.92;;
24547;SDS011;12713;51.624;4.924;2024-02-16T00:47:05;5.93;;;2.90;;
24547;SDS011;12713;51.624;4.924;2024-02-16T00:49:34;6.47;;;3.08;;
24547;SDS011;12713;51.624;4.924;2024-02-16T00:52:00;5.70;;;2.83;;
24547;SDS011;12713;51.624;4.924;2024-02-16T00:54:27;6.40;;;3.15;;
24547;SDS011;12713;51.624;4.924;2024-02-16T00:56:53;7.95;;;3.40;;
24547;SDS011;12713;51.624;4.924;2024-02-16T00:59:20;8.25;;;3.45;;
24547;SDS011;12713;51.624;4.924;2024-02-16T01:01:46;6.55;;;3.72;;
24547;SDS011;12713;51.624;4.924;2024-02-16T01:04:12;6.57;;;4.07;;
24547;SDS011;12713;51.624;4.924;2024-02-16T01:06:38;6.30;;;3.90;;
24547;SDS011;12713;51.624;4.924;2024-02-16T01:09:04;9.02;;;4.53;;
24547;SDS011;12713;51.624;4.924;2024-02-16T01:11:30;7.57;;;4.55;;
24547;SDS011;12713;51.624;4.924;2024-02-16T01:13:56;6.47;;;4.70;;
24547;SDS011;12713;51.624;4.924;2024-02-16T01:16:22;8.57;;;5.70;;
24547;SDS011;12713;51.624;4.924;2024-02-16T01:18:49;6.53;;;4.70;;
24547;SDS011;12713;51.624;4.924;2024-02-16T01:21:15;10.30;;;5.30;;
24547;SDS011;12713;51.624;4.924;2024-02-16T01:23:41;8.93;;;5.80;;
24547;SDS011;12713;51.624;4.924;2024-02-16T01:26:07;11.65;;;4.85;;
24547;SDS011;12713;51.624;4.924;2024-02-16T01:28:33;8.10;;;5.35;;
24547;SDS011;12713;51.624;4.924;2024-02-16T01:30:59;7.53;;;5.30;;
24547;SDS011;12713;51.624;4.924;2024-02-16T01:33:25;8.48;;;5.47;;
24547;SDS011;12713;51.624;4.924;2024-02-16T01:35:51;11.02;;;6.00;;
24547;SDS011;12713;51.624;4.924;2024-02-16T01:38:17;7.68;;;5.93;;
24547;SDS011;12713;51.624;4.924;2024-02-16T01:40:43;6.97;;;5.97;;
24547;SDS011;12713;51.624;4.924;2024-02-16T01:43:09;10.75;;;6.47;;
24547;SDS011;12713;51.624;4.924;2024-02-16T01:45:36;9.27;;;6.85;;
24547;SDS011;12713;51.624;4.924;2024-02-16T01:48:02;8.27;;;6.05;;
24547;SDS011;12713;51.624;4.924;2024-02-16T01:50:28;6.60;;;5.07;;
24547;SDS011;12713;51.624;4.924;2024-02-16T01:52:54;9.38;;;5.22;;
24547;SDS011;12713;51.624;4.924;2024-02-16T01:55:20;7.57;;;4.75;;
24547;SDS011;12713;51.624;4.924;2024-02-16T01:57:47;4.63;;;4.03;;
24547;SDS011;12713;51.624;4.924;2024-02-16T02:00:14;7.70;;;4.82;;
24547;SDS011;12713;51.624;4.924;2024-02-16T02:02:43;6.72;;;5.05;;
24547;SDS011;12713;51.624;4.924;2024-02-16T02:05:10;6.18;;;4.55;;
24547;SDS011;12713;51.624;4.924;2024-02-16T02:07:36;6.55;;;4.60;;
24547;SDS011;12713;51.624;4.924;2024-02-16T02:10:02;7.65;;;4.18;;
24547;SDS011;12713;51.624;4.924;2024-02-16T02:12:29;9.10;;;4.07;;
24547;SDS011;12713;51.624;4.924;2024-02-16T02:14:55;6.50;;;4.25;;
24547;SDS011;12713;51.624;4.924;2024-02-16T02:17:21;6.32;;;3.90;;
24547;SDS011;12713;51.624;4.924;2024-02-16T02:19:47;7.50;;;3.83;;
24547;SDS011;12713;51.624;4.924;2024-02-16T02:22:16;9.60;;;4.22;;
24547;SDS011;12713;51.624;4.924;2024-02-16T02:24:43;5.97;;;3.85;;
24547;SDS011;12713;51.624;4.924;2024-02-16T02:27:09;4.75;;;3.50;;
24547;SDS011;12713;51.624;4.924;2024-02-16T02:29:35;10.00;;;4.20;;
24547;SDS011;12713;51.624;4.924;2024-02-16T02:32:01;9.48;;;4.13;;
24547;SDS011;12713;51.624;4.924;2024-02-16T02:34:27;5.82;;;3.63;;
24547;SDS011;12713;51.624;4.924;2024-02-16T02:36:53;6.78;;;4.13;;
24547;SDS011;12713;51.624;4.924;2024-02-16T02:39:19;8.52;;;4.15;;
24547;SDS011;12713;51.624;4.924;2024-02-16T02:41:46;4.97;;;3.72;;
24547;SDS011;12713;51.624;4.924;2024-02-16T02:44:12;8.32;;;3.40;;
24547;SDS011;12713;51.624;4.924;2024-02-16T02:46:38;4.32;;;3.00;;
24547;SDS011;12713;51.624;4.924;2024-02-16T02:49:04;7.57;;;3.67;;
24547;SDS011;12713;51.624;4.924;2024-02-16T02:51:30;5.97;;;3.78;;
24547;SDS011;12713;51.624;4.924;2024-02-16T02:53:56;5.60;;;3.50;;
24547;SDS011;12713;51.624;4.924;2024-02-16T02:56:22;9.20;;;3.78;;
24547;SDS011;12713;51.624;4.924;2024-02-16T02:58:48;6.38;;;3.30;;
24547;SDS011;12713;51.624;4.924;2024-02-16T03:01:14;8.18;;;3.72;;
24547;SDS011;12713;51.624;4.924;2024-02-16T03:03:40;7.03;;;3.67;;
24547;SDS011;12713;51.624;4.924;2024-02-16T03:06:08;7.30;;;3.65;;
24547;SDS011;12713;51.624;4.924;2024-02-16T03:08:37;3.95;;;2.88;;
24547;SDS011;12713;51.624;4.924;2024-02-16T03:11:03;6.07;;;3.50;;
24547;SDS011;12713;51.624;4.924;2024-02-16T03:13:29;6.05;;;3.15;;
24547;SDS011;12713;51.624;4.924;2024-02-16T03:15:55;4.50;;;3.30;;
24547;SDS011;12713;51.624;4.924;2024-02-16T03:18:21;6.57;;;3.50;;
24547;SDS011;12713;51.624;4.924;2024-02-16T03:20:47;4.88;;;3.08;;
24547;SDS011;12713;51.624;4.924;2024-02-16T03:23:15;7.63;;;5.18;;
24547;SDS011;12713;51.624;4.924;2024-02-16T03:25:41;12.93;;;8.00;;
24547;SDS011;12713;51.624;4.924;2024-02-16T03:28:11;13.95;;;7.15;;
24547;SDS011;12713;51.624;4.924;2024-02-16T03:30:38;10.52;;;5.90;;
24547;SDS011;12713;51.624;4.924;2024-02-16T03:33:04;7.25;;;4.88;;
24547;SDS011;12713;51.624;4.924;2024-02-16T03:35:30;8.48;;;5.22;;
24547;SDS011;12713;51.624;4.924;2024-02-16T03:37:56;9.82;;;6.50;;
24547;SDS011;12713;51.624;4.924;2024-02-16T03:40:22;11.20;;;7.40;;
24547;SDS011;12713;51.624;4.924;2024-02-16T03:42:49;11.00;;;6.32;;
24547;SDS011;12713;51.624;4.924;2024-02-16T03:45:15;8.02;;;3.83;;
24547;SDS011;12713;51.624;4.924;2024-02-16T03:47:41;6.72;;;3.63;;
24547;SDS011;12713;51.624;4.924;2024-02-16T03:50:07;6.93;;;3.72;;
24547;SDS011;12713;51.624;4.924;2024-02-16T03:52:33;8.05;;;3.40;;
24547;SDS011;12713;51.624;4.924;2024-02-16T03:54:59;6.68;;;3.50;;
24547;SDS011;12713;51.624;4.924;2024-02-16T03:57:25;8.18;;;3.88;;
24547;SDS011;12713;51.624;4.924;2024-02-16T03:59:52;5.45;;;3.28;;
24547;SDS011;12713;51.624;4.924;2024-02-16T04:02:18;12.07;;;3.97;;
24547;SDS011;12713;51.624;4.924;2024-02-16T04:04:44;7.07;;;3.75;;
24547;SDS011;12713;51.624;4.924;2024-02-16T04:07:10;6.60;;;2.92;;
24547;SDS011;12713;51.624;4.924;2024-02-16T04:09:36;5.97;;;3.03;;
24547;SDS011;12713;51.624;4.924;2024-02-16T04:12:02;10.25;;;3.35;;
24547;SDS011;12713;51.624;4.924;2024-02-16T04:14:29;6.45;;;3.42;;
24547;SDS011;12713;51.624;4.924;2024-02-16T04:16:55;5.47;;;3.30;;
24547;SDS011;12713;51.624;4.924;2024-02-16T04:19:23;8.23;;;3.50;;
24547;SDS011;12713;51.624;4.924;2024-02-16T04:21:49;5.43;;;3.53;;
24547;SDS011;12713;51.624;4.924;2024-02-16T04:24:15;9.35;;;3.70;;
24547;SDS011;12713;51.624;4.924;2024-02-16T04:26:41;7.40;;;3.20;;
24547;SDS011;12713;51.624;4.924;2024-02-16T04:29:07;5.38;;;3.28;;
24547;SDS011;12713;51.624;4.924;2024-02-16T04:31:33;5.03;;;3.45;;
24547;SDS011;12713;51.624;4.924;2024-02-16T04:33:59;7.00;;;3.38;;
24547;SDS011;12713;51.624;4.924;2024-02-16T04:36:26;3.80;;;2.92;;
24547;SDS011;12713;51.624;4.924;2024-02-16T04:38:52;7.97;;;3.55;;
24547;SDS011;12713;51.624;4.924;2024-02-16T04:41:21;5.28;;;2.90;;
24547;SDS011;12713;51.624;4.924;2024-02-16T04:43:47;7.93;;;3.58;;
24547;SDS011;12713;51.624;4.924;2024-02-16T04:46:17;6.63;;;3.72;;
24547;SDS011;12713;51.624;4.924;2024-02-16T04:48:43;8.38;;;3.50;;
24547;SDS011;12713;51.624;4.924;2024-02-16T04:51:10;5.50;;;3.60;;
24547;SDS011;12713;51.624;4.924;2024-02-16T04:53:36;8.73;;;4.88;;
24547;SDS011;12713;51.624;4.924;2024-02-16T04:56:02;5.00;;;3.67;;
24547;SDS011;12713;51.624;4.924;2024-02-16T04:58:30;5.85;;;3.10;;
24547;SDS011;12713;51.624;4.924;2024-02-16T05:00:56;8.57;;;4.32;;
24547;SDS011;12713;51.624;4.924;2024-02-16T05:03:22;10.98;;;4.30;;
24547;SDS011;12713;51.624;4.924;2024-02-16T05:05:48;7.20;;;4.22;;
24547;SDS011;12713;51.624;4.924;2024-02-16T05:08:14;5.57;;;3.30;;
24547;SDS011;12713;51.624;4.924;2024-02-16T05:10:40;11.57;;;4.10;;
24547;SDS011;12713;51.624;4.924;2024-02-16T05:13:06;6.63;;;3.90;;
24547;SDS011;12713;51.624;4.924;2024-02-16T05:15:32;10.63;;;3.10;;
24547;SDS011;12713;51.624;4.924;2024-02-16T05:17:58;7.05;;;3.40;;
24547;SDS011;12713;51.624;4.924;2024-02-16T05:20:24;6.68;;;3.28;;
24547;SDS011;12713;51.624;4.924;2024-02-16T05:22:50;6.70;;;4.00;;
24547;SDS011;12713;51.624;4.924;2024-02-16T05:25:17;6.32;;;4.00;;
24547;SDS011;12713;51.624;4.924;2024-02-16T05:27:43;7.75;;;3.70;;
24547;SDS011;12713;51.624;4.924;2024-02-16T05:30:10;4.75;;;3.25;;
24547;SDS011;12713;51.624;4.924;2024-02-16T05:32:38;5.75;;;3.50;;
24547;SDS011;12713;51.624;4.924;2024-02-16T05:35:04;6.60;;;3.75;;
24547;SDS011;12713;51.624;4.924;2024-02-16T05:37:46;5.83;;;3.53;;
24547;SDS011;12713;51.624;4.924;2024-02-16T05:40:17;6.25;;;3.05;;
24547;SDS011;12713;51.624;4.924;2024-02-16T05:42:51;5.55;;;3.45;;
24547;SDS011;12713;51.624;4.924;2024-02-16T05:45:18;4.80;;;3.67;;
24547;SDS011;12713;51.624;4.924;2024-02-16T05:47:44;7.13;;;3.90;;
24547;SDS011;12713;51.624;4.924;2024-02-16T05:50:11;5.32;;;3.30;;
24547;SDS011;12713;51.624;4.924;2024-02-16T05:52:38;8.80;;;3.72;;
24547;SDS011;12713;51.624;4.924;2024-02-16T05:55:05;10.38;;;3.42;;
24547;SDS011;12713;51.624;4.924;2024-02-16T05:57:31;8.32;;;3.40;;
24547;SDS011;12713;51.624;4.924;2024-02-16T05:59:57;7.82;;;3.63;;
24547;SDS011;12713;51.624;4.924;2024-02-16T06:02:23;7.47;;;3.53;;
24547;SDS011;12713;51.624;4.924;2024-02-16T06:04:53;4.78;;;3.45;;
24547;SDS011;12713;51.624;4.924;2024-02-16T06:07:19;8.15;;;3.75;;
24547;SDS011;12713;51.624;4.924;2024-02-16T06:09:45;6.47;;;3.05;;
24547;SDS011;12713;51.624;4.924;2024-02-16T06:12:11;7.75;;;4.07;;
24547;SDS011;12713;51.624;4.924;2024-02-16T06:14:38;9.10;;;4.00;;
24547;SDS011;12713;51.624;4.924;2024-02-16T06:17:04;9.48;;;4.30;;
24547;SDS011;12713;51.624;4.924;2024-02-16T06:19:30;6.47;;;3.67;;
24547;SDS011;12713;51.624;4.924;2024-02-16T06:21:56;8.55;;;4.22;;
24547;SDS011;12713;51.624;4.924;2024-02-16T06:24:22;7.18;;;4.03;;
24547;SDS011;12713;51.624;4.924;2024-02-16T06:26:49;12.05;;;4.47;;
24547;SDS011;12713;51.624;4.924;2024-02-16T06:29:18;10.30;;;3.97;;
24547;SDS011;12713;51.624;4.924;2024-02-16T06:31:45;8.70;;;3.83;;
24547;SDS011;12713;51.624;4.924;2024-02-16T06:34:11;9.25;;;4.13;;
24547;SDS011;12713;51.624;4.924;2024-02-16T06:36:37;8.80;;;3.92;;
24547;SDS011;12713;51.624;4.924;2024-02-16T06:39:03;9.05;;;4.10;;
24547;SDS011;12713;51.624;4.924;2024-02-16T06:41:29;9.88;;;4.60;;
24547;SDS011;12713;51.624;4.924;2024-02-16T06:43:55;9.82;;;4.05;;
24547;SDS011;12713;51.624;4.924;2024-02-16T06:46:21;7.72;;;3.90;;
24547;SDS011;12713;51.624;4.924;2024-02-16T06:48:47;13.55;;;4.13;;
24547;SDS011;12713;51.624;4.924;2024-02-16T06:51:13;5.07;;;3.67;;
24547;SDS011;12713;51.624;4.924;2024-02-16T06:53:39;6.70;;;3.47;;
24547;SDS011;12713;51.624;4.924;2024-02-16T06:56:05;8.35;;;3.78;;
24547;SDS011;12713;51.624;4.924;2024-02-16T06:58:31;8.65;;;4.10;;
24547;SDS011;12713;51.624;4.924;2024-02-16T07:00:59;14.57;;;3.80;;
24547;SDS011;12713;51.624;4.924;2024-02-16T07:03:28;8.02;;;4.18;;
24547;SDS011;12713;51.624;4.924;2024-02-16T07:05:54;9.13;;;4.32;;
24547;SDS011;12713;51.624;4.924;2024-02-16T07:08:20;10.68;;;4.38;;
24547;SDS011;12713;51.624;4.924;2024-02-16T07:10:49;9.50;;;4.68;;
24547;SDS011;12713;51.624;4.924;2024-02-16T07:13:16;9.98;;;4.10;;
24547;SDS011;12713;51.624;4.924;2024-02-16T07:15:42;6.70;;;4.03;;
24547;SDS011;12713;51.624;4.924;2024-02-16T07:18:08;9.48;;;4.75;;
24547;SDS011;12713;51.624;4.924;2024-02-16T07:20:35;9.00;;;4.50;;
24547;SDS011;12713;51.624;4.924;2024-02-16T07:23:01;9.93;;;4.45;;
24547;SDS011;12713;51.624;4.924;2024-02-16T07:25:27;7.95;;;4.30;;
24547;SDS011;12713;51.624;4.924;2024-02-16T07:27:54;7.40;;;4.30;;
24547;SDS011;12713;51.624;4.924;2024-02-16T07:30:20;9.20;;;4.93;;
24547;SDS011;12713;51.624;4.924;2024-02-16T07:32:49;7.85;;;4.90;;
24547;SDS011;12713;51.624;4.924;2024-02-16T07:35:17;8.98;;;4.38;;
24547;SDS011;12713;51.624;4.924;2024-02-16T07:37:43;11.30;;;4.93;;
24547;SDS011;12713;51.624;4.924;2024-02-16T07:40:09;10.93;;;5.07;;
24547;SDS011;12713;51.624;4.924;2024-02-16T07:42:38;7.75;;;4.20;;
24547;SDS011;12713;51.624;4.924;2024-02-16T07:45:08;9.10;;;4.60;;
24547;SDS011;12713;51.624;4.924;2024-02-16T07:47:36;10.00;;;4.80;;
24547;SDS011;12713;51.624;4.924;2024-02-16T07:50:02;14.30;;;6.50;;
24547;SDS011;12713;51.624;4.924;2024-02-16T07:52:28;8.75;;;4.90;;
24547;SDS011;12713;51.624;4.924;2024-02-16T07:54:54;8.25;;;4.78;;
24547;SDS011;12713;51.624;4.924;2024-02-16T07:57:20;14.15;;;5.68;;
24547;SDS011;12713;51.624;4.924;2024-02-16T07:59:48;12.00;;;5.45;;
24547;SDS011;12713;51.624;4.924;2024-02-16T08:02:13;7.38;;;5.00;;
24547;SDS011;12713;51.624;4.924;2024-02-16T08:04:50;15.18;;;4.90;;
24547;SDS011;12713;51.624;4.924;2024-02-16T08:07:16;17.05;;;6.03;;
24547;SDS011;12713;51.624;4.924;2024-02-16T08:09:46;6.43;;;4.70;;
24547;SDS011;12713;51.624;4.924;2024-02-16T08:12:12;9.93;;;4.80;;
24547;SDS011;12713;51.624;4.924;2024-02-16T08:14:38;12.13;;;5.32;;
24547;SDS011;12713;51.624;4.924;2024-02-16T08:17:05;11.50;;;5.50;;
24547;SDS011;12713;51.624;4.924;2024-02-16T08:19:32;9.10;;;5.78;;
24547;SDS011;12713;51.624;4.924;2024-02-16T08:21:59;16.17;;;5.32;;
24547;SDS011;12713;51.624;4.924;2024-02-16T08:24:25;10.57;;;5.07;;
24547;SDS011;12713;51.624;4.924;2024-02-16T08:26:52;12.25;;;6.00;;
24547;SDS011;12713;51.624;4.924;2024-02-16T08:29:18;10.95;;;5.68;;
24547;SDS011;12713;51.624;4.924;2024-02-16T08:31:45;10.48;;;5.53;;
24547;SDS011;12713;51.624;4.924;2024-02-16T08:34:11;10.45;;;4.82;;
24547;SDS011;12713;51.624;4.924;2024-02-16T08:36:37;7.45;;;4.43;;
24547;SDS011;12713;51.624;4.924;2024-02-16T08:39:05;10.80;;;5.25;;
24547;SDS011;12713;51.624;4.924;2024-02-16T08:41:31;11.27;;;4.75;;
24547;SDS011;12713;51.624;4.924;2024-02-16T08:43:57;8.93;;;5.10;;
24547;SDS011;12713;51.624;4.924;2024-02-16T08:46:23;10.18;;;4.97;;
24547;SDS011;12713;51.624;4.924;2024-02-16T08:48:49;11.93;;;5.43;;
24547;SDS011;12713;51.624;4.924;2024-02-16T08:51:15;10.18;;;5.25;;
24547;SDS011;12713;51.624;4.924;2024-02-16T08:53:41;9.40;;;5.28;;
24547;SDS011;12713;51.624;4.924;2024-02-16T08:56:10;8.88;;;4.72;;
24547;SDS011;12713;51.624;4.924;2024-02-16T08:58:36;9.52;;;4.72;;
24547;SDS011;12713;51.624;4.924;2024-02-16T09:01:02;9.80;;;5.63;;
24547;SDS011;12713;51.624;4.924;2024-02-16T09:03:28;9.52;;;5.13;;
24547;SDS011;12713;51.624;4.924;2024-02-16T09:05:58;11.80;;;5.22;;
24547;SDS011;12713;51.624;4.924;2024-02-16T09:08:24;12.25;;;5.68;;
24547;SDS011;12713;51.624;4.924;2024-02-16T09:10:51;12.52;;;6.05;;
24547;SDS011;12713;51.624;4.924;2024-02-16T09:13:17;10.80;;;5.72;;
24547;SDS011;12713;51.624;4.924;2024-02-16T09:15:43;11.15;;;5.85;;
24547;SDS011;12713;51.624;4.924;2024-02-16T09:18:09;11.43;;;5.50;;
24547;SDS011;12713;51.624;4.924;2024-02-16T09:20:35;9.80;;;4.85;;
24547;SDS011;12713;51.624;4.924;2024-02-16T09:23:01;12.82;;;5.57;;
24547;SDS011;12713;51.624;4.924;2024-02-16T09:25:27;9.45;;;4.85;;
24547;SDS011;12713;51.624;4.924;2024-02-16T09:27:53;12.55;;;5.53;;
24547;SDS011;12713;51.624;4.924;2024-02-16T09:30:19;12.90;;;5.90;;
24547;SDS011;12713;51.624;4.924;2024-02-16T09:32:46;8.00;;;5.03;;
24547;SDS011;12713;51.624;4.924;2024-02-16T09:35:13;12.00;;;6.13;;
24547;SDS011;12713;51.624;4.924;2024-02-16T09:37:39;10.65;;;5.22;;
24547;SDS011;12713;51.624;4.924;2024-02-16T09:40:05;11.75;;;5.25;;
24547;SDS011;12713;51.624;4.924;2024-02-16T09:42:33;10.85;;;5.75;;
24547;SDS011;12713;51.624;4.924;2024-02-16T09:45:03;11.65;;;5.60;;
24547;SDS011;12713;51.624;4.924;2024-02-16T09:47:29;14.02;;;5.80;;
24547;SDS011;12713;51.624;4.924;2024-02-16T09:49:58;9.18;;;6.18;;
24547;SDS011;12713;51.624;4.924;2024-02-16T09:52:24;13.20;;;6.05;;
24547;SDS011;12713;51.624;4.924;2024-02-16T09:54:50;16.23;;;6.07;;
24547;SDS011;12713;51.624;4.924;2024-02-16T09:57:16;16.20;;;5.78;;
24547;SDS011;12713;51.624;4.924;2024-02-16T09:59:42;10.57;;;6.68;;
24547;SDS011;12713;51.624;4.924;2024-02-16T10:02:08;13.57;;;5.90;;
24547;SDS011;12713;51.624;4.924;2024-02-16T10:04:35;8.73;;;5.90;;
24547;SDS011;12713;51.624;4.924;2024-02-16T10:07:01;12.52;;;5.85;;
24547;SDS011;12713;51.624;4.924;2024-02-16T10:09:29;10.43;;;6.55;;
24547;SDS011;12713;51.624;4.924;2024-02-16T10:11:55;11.10;;;6.22;;
24547;SDS011;12713;51.624;4.924;2024-02-16T10:14:22;12.75;;;7.07;;
24547;SDS011;12713;51.624;4.924;2024-02-16T10:16:59;13.98;;;6.22;;
24547;SDS011;12713;51.624;4.924;2024-02-16T10:19:25;13.55;;;7.70;;
24547;SDS011;12713;51.624;4.924;2024-02-16T10:21:51;13.52;;;6.55;;
24547;SDS011;12713;51.624;4.924;2024-02-16T10:24:21;14.48;;;6.85;;
24547;SDS011;12713;51.624;4.924;2024-02-16T10:26:47;12.20;;;7.55;;
24547;SDS011;12713;51.624;4.924;2024-02-16T10:29:14;17.58;;;9.82;;
24547;SDS011;12713;51.624;4.924;2024-02-16T10:31:44;14.60;;;9.90;;
24547;SDS011;12713;51.624;4.924;2024-02-16T10:34:11;17.67;;;10.30;;
24547;SDS011;12713;51.624;4.924;2024-02-16T10:36:37;18.27;;;10.25;;
24547;SDS011;12713;51.624;4.924;2024-02-16T10:39:04;17.92;;;10.38;;
24547;SDS011;12713;51.624;4.924;2024-02-16T10:41:41;19.60;;;10.73;;
24547;SDS011;12713;51.624;4.924;2024-02-16T10:44:07;19.45;;;11.10;;
24547;SDS011;12713;51.624;4.924;2024-02-16T10:46:33;20.75;;;10.88;;
24547;SDS011;12713;51.624;4.924;2024-02-16T10:49:00;17.60;;;10.68;;
24547;SDS011;12713;51.624;4.924;2024-02-16T10:51:36;19.85;;;10.15;;
24547;SDS011;12713;51.624;4.924;2024-02-16T10:54:04;18.33;;;10.60;;
24547;SDS011;12713;51.624;4.924;2024-02-16T10:56:37;15.00;;;10.20;;
24547;SDS011;12713;51.624;4.924;2024-02-16T10:59:04;16.70;;;11.07;;
24547;SDS011;12713;51.624;4.924;2024-02-16T11:01:40;17.10;;;10.45;;
24547;SDS011;12713;51.624;4.924;2024-02-16T11:04:07;21.30;;;12.13;;
24547;SDS011;12713;51.624;4.924;2024-02-16T11:06:44;15.50;;;10.57;;
24547;SDS011;12713;51.624;4.924;2024-02-16T11:09:10;21.25;;;10.65;;
24547;SDS011;12713;51.624;4.924;2024-02-16T11:11:37;19.60;;;11.80;;
24547;SDS011;12713;51.624;4.924;2024-02-16T11:14:03;19.92;;;11.35;;
24547;SDS011;12713;51.624;4.924;2024-02-16T11:16:29;15.93;;;11.05;;
24547;SDS011;12713;51.624;4.924;2024-02-16T11:18:55;17.48;;;11.18;;
24547;SDS011;12713;51.624;4.924;2024-02-16T11:21:22;18.85;;;11.88;;
24547;SDS011;12713;51.624;4.924;2024-02-16T11:23:48;14.77;;;11.27;;
24547;SDS011;12713;51.624;4.924;2024-02-16T11:26:14;17.35;;;10.90;;
24547;SDS011;12713;51.624;4.924;2024-02-16T11:28:42;20.00;;;11.60;;
24547;SDS011;12713;51.624;4.924;2024-02-16T11:31:09;15.05;;;11.48;;
24547;SDS011;12713;51.624;4.924;2024-02-16T11:33:35;15.07;;;11.45;;
24547;SDS011;12713;51.624;4.924;2024-02-16T11:36:05;17.65;;;12.63;;
24547;SDS011;12713;51.624;4.924;2024-02-16T11:38:33;18.35;;;12.68;;
24547;SDS011;12713;51.624;4.924;2024-02-16T11:41:03;16.98;;;12.35;;
24547;SDS011;12713;51.624;4.924;2024-02-16T11:43:29;16.85;;;11.73;;
24547;SDS011;12713;51.624;4.924;2024-02-16T11:45:57;20.77;;;13.18;;
24547;SDS011;12713;51.624;4.924;2024-02-16T11:48:24;20.52;;;14.27;;
24547;SDS011;12713;51.624;4.924;2024-02-16T11:50:58;19.38;;;13.82;;
24547;SDS011;12713;51.624;4.924;2024-02-16T11:53:24;18.00;;;13.15;;
24547;SDS011;12713;51.624;4.924;2024-02-16T11:55:50;18.65;;;13.20;;
24547;SDS011;12713;51.624;4.924;2024-02-16T11:58:19;18.58;;;13.90;;
24547;SDS011;12713;51.624;4.924;2024-02-16T12:00:46;20.90;;;14.02;;
24547;SDS011;12713;51.624;4.924;2024-02-16T12:03:17;18.58;;;12.45;;
24547;SDS011;12713;51.624;4.924;2024-02-16T12:05:49;18.55;;;12.93;;
24547;SDS011;12713;51.624;4.924;2024-02-16T12:08:15;19.48;;;12.95;;
24547;SDS011;12713;51.624;4.924;2024-02-16T12:10:42;16.42;;;12.43;;
24547;SDS011;12713;51.624;4.924;2024-02-16T12:13:08;18.52;;;13.13;;
24547;SDS011;12713;51.624;4.924;2024-02-16T12:15:37;17.50;;;12.20;;
24547;SDS011;12713;51.624;4.924;2024-02-16T12:18:03;16.38;;;11.68;;
24547;SDS011;12713;51.624;4.924;2024-02-16T12:20:30;17.80;;;11.68;;
24547;SDS011;12713;51.624;4.924;2024-02-16T12:22:58;17.40;;;12.07;;
24547;SDS011;12713;51.624;4.924;2024-02-16T12:25:27;19.05;;;11.45;;
24547;SDS011;12713;51.624;4.924;2024-02-16T12:27:53;19.00;;;12.43;;
24547;SDS011;12713;51.624;4.924;2024-02-16T12:30:19;21.95;;;13.93;;
24547;SDS011;12713;51.624;4.924;2024-02-16T12:32:45;21.08;;;13.98;;
24547;SDS011;12713;51.624;4.924;2024-02-16T12:35:11;24.10;;;15.57;;
24547;SDS011;12713;51.624;4.924;2024-02-16T12:37:37;21.58;;;14.30;;
24547;SDS011;12713;51.624;4.924;2024-02-16T12:40:03;23.00;;;15.27;;
24547;SDS011;12713;51.624;4.924;2024-02-16T12:42:31;23.67;;;16.00;;
24547;SDS011;12713;51.624;4.924;2024-02-16T12:44:57;19.05;;;14.13;;
24547;SDS011;12713;51.624;4.924;2024-02-16T12:47:23;20.33;;;13.35;;
24547;SDS011;12713;51.624;4.924;2024-02-16T12:49:49;17.75;;;12.00;;
24547;SDS011;12713;51.624;4.924;2024-02-16T12:52:19;17.05;;;11.80;;
24547;SDS011;12713;51.624;4.924;2024-02-16T12:54:48;13.05;;;10.20;;
24547;SDS011;12713;51.624;4.924;2024-02-16T12:57:14;14.75;;;9.75;;
24547;SDS011;12713;51.624;4.924;2024-02-16T12:59:40;13.68;;;8.95;;
24547;SDS011;12713;51.624;4.924;2024-02-16T13:02:08;13.43;;;9.25;;
24547;SDS011;12713;51.624;4.924;2024-02-16T13:04:34;13.95;;;9.35;;
24547;SDS011;12713;51.624;4.924;2024-02-16T13:07:00;10.05;;;8.95;;
24547;SDS011;12713;51.624;4.924;2024-02-16T13:09:26;12.23;;;9.05;;
24547;SDS011;12713;51.624;4.924;2024-02-16T13:11:53;13.18;;;9.25;;
24547;SDS011;12713;51.624;4.924;2024-02-16T13:14:22;13.20;;;9.52;;
24547;SDS011;12713;51.624;4.924;2024-02-16T13:16:48;11.60;;;9.25;;
24547;SDS011;12713;51.624;4.924;2024-02-16T13:19:14;9.70;;;8.15;;
24547;SDS011;12713;51.624;4.924;2024-02-16T13:21:43;11.18;;;7.75;;
24547;SDS011;12713;51.624;4.924;2024-02-16T13:24:09;9.82;;;7.72;;
24547;SDS011;12713;51.624;4.924;2024-02-16T13:26:35;8.85;;;7.22;;
24547;SDS011;12713;51.624;4.924;2024-02-16T13:29:01;11.93;;;7.10;;
24547;SDS011;12713;51.624;4.924;2024-02-16T13:31:28;9.50;;;7.53;;
24547;SDS011;12713;51.624;4.924;2024-02-16T13:33:54;7.55;;;6.47;;
24547;SDS011;12713;51.624;4.924;2024-02-16T13:36:20;9.02;;;6.70;;
24547;SDS011;12713;51.624;4.924;2024-02-16T13:38:46;12.35;;;6.25;;
24547;SDS011;12713;51.624;4.924;2024-02-16T13:41:12;9.57;;;5.72;;
24547;SDS011;12713;51.624;4.924;2024-02-16T13:43:38;10.52;;;5.97;;
24547;SDS011;12713;51.624;4.924;2024-02-16T13:46:04;5.95;;;4.75;;
24547;SDS011;12713;51.624;4.924;2024-02-16T13:48:30;9.27;;;5.40;;
24547;SDS011;12713;51.624;4.924;2024-02-16T13:50:56;7.00;;;5.50;;
24547;SDS011;12713;51.624;4.924;2024-02-16T13:53:22;9.55;;;5.93;;
24547;SDS011;12713;51.624;4.924;2024-02-16T13:55:48;8.05;;;6.25;;
24547;SDS011;12713;51.624;4.924;2024-02-16T13:58:14;9.73;;;6.70;;
24547;SDS011;12713;51.624;4.924;2024-02-16T14:00:40;7.45;;;6.53;;
24547;SDS011;12713;51.624;4.924;2024-02-16T14:03:10;10.43;;;6.57;;
24547;SDS011;12713;51.624;4.924;2024-02-16T14:05:36;9.85;;;7.80;;
24547;SDS011;12713;51.624;4.924;2024-02-16T14:08:03;10.20;;;7.55;;
24547;SDS011;12713;51.624;4.924;2024-02-16T14:10:30;9.05;;;8.13;;
24547;SDS011;12713;51.624;4.924;2024-02-16T14:12:57;10.90;;;9.15;;
24547;SDS011;12713;51.624;4.924;2024-02-16T14:15:23;11.38;;;8.43;;
24547;SDS011;12713;51.624;4.924;2024-02-16T14:17:49;11.07;;;9.10;;
24547;SDS011;12713;51.624;4.924;2024-02-16T14:20:15;10.88;;;8.82;;
24547;SDS011;12713;51.624;4.924;2024-02-16T14:22:41;12.05;;;8.57;;
24547;SDS011;12713;51.624;4.924;2024-02-16T14:25:07;13.10;;;8.05;;
24547;SDS011;12713;51.624;4.924;2024-02-16T14:27:36;11.57;;;9.55;;
24547;SDS011;12713;51.624;4.924;2024-02-16T14:30:04;10.80;;;9.27;;
24547;SDS011;12713;51.624;4.924;2024-02-16T14:32:30;11.65;;;8.68;;
24547;SDS011;12713;51.624;4.924;2024-02-16T14:34:56;10.23;;;8.13;;
24547;SDS011;12713;51.624;4.924;2024-02-16T14:37:22;11.30;;;9.13;;